East Harling, United Kingdom
Current Conditions -  °F | °C
As of 5:58 AM on Saturday 20 Dec 2014 (Local Time) from EGUL Reporting Station
Overcast Overcast  
Wind Chill: 34°   Ceiling: 4800
Heat Index: 43°   Visibility: 6mi
Dew Point: 43°   Wind: 22mph
Humidity: 100%   Direction: 250°WSW
Pressure: 30.11"   Gusts: 28mph
Location:  52.44°N, 0.93°E
Report Text: EGUL 200558Z AUTO 25019G24KT 9999 OVC048 06/06 A3011 RMK AO2 SLP200 T00600060 10060 20044 58002
Loading
Personal Weather Stations






























Interactive Weather Map New forecast layout! Learn more

10-Day Weather Forecast

Advertisements
Track Severe Weather on mobile